sensor_id;sensor_type;location;lat;lon;timestamp;pressure;altitude;pressure_sealevel;temperature;humidity
85752;BME280;76192;39.766;2.716;2024-02-15T00:00:28;101942.65;;;15.39;51.46
85752;BME280;76192;39.766;2.716;2024-02-15T00:02:53;101950.63;;;15.41;52.16
85752;BME280;76192;39.766;2.716;2024-02-15T00:05:19;101950.83;;;15.41;53.43
85752;BME280;76192;39.766;2.716;2024-02-15T00:07:45;101943.77;;;15.41;53.85
85752;BME280;76192;39.766;2.716;2024-02-15T00:10:14;101943.55;;;15.40;54.31
85752;BME280;76192;39.766;2.716;2024-02-15T00:12:40;101935.77;;;15.39;54.42
85752;BME280;76192;39.766;2.716;2024-02-15T00:15:06;101926.60;;;15.37;54.61
85752;BME280;76192;39.766;2.716;2024-02-15T00:17:31;101922.20;;;15.35;54.66
85752;BME280;76192;39.766;2.716;2024-02-15T00:19:59;101915.55;;;15.31;54.75
85752;BME280;76192;39.766;2.716;2024-02-15T00:22:25;101919.73;;;15.28;54.82
85752;BME280;76192;39.766;2.716;2024-02-15T00:24:51;101924.43;;;15.26;55.06
85752;BME280;76192;39.766;2.716;2024-02-15T00:27:17;101930.83;;;15.23;55.29
85752;BME280;76192;39.766;2.716;2024-02-15T00:29:43;101933.31;;;15.21;55.57
85752;BME280;76192;39.766;2.716;2024-02-15T00:32:09;101926.84;;;15.18;55.97
85752;BME280;76192;39.766;2.716;2024-02-15T00:34:36;101919.00;;;15.15;56.03
85752;BME280;76192;39.766;2.716;2024-02-15T00:37:04;101917.85;;;15.12;55.53
85752;BME280;76192;39.766;2.716;2024-02-15T00:39:31;101913.49;;;15.11;55.00
85752;BME280;76192;39.766;2.716;2024-02-15T00:41:57;101910.33;;;15.09;54.77
85752;BME280;76192;39.766;2.716;2024-02-15T00:44:28;101902.73;;;15.08;54.88
85752;BME280;76192;39.766;2.716;2024-02-15T00:46:53;101896.65;;;15.07;54.83
85752;BME280;76192;39.766;2.716;2024-02-15T00:49:19;101891.30;;;15.06;54.64
85752;BME280;76192;39.766;2.716;2024-02-15T00:51:48;101883.48;;;15.04;54.38
85752;BME280;76192;39.766;2.716;2024-02-15T00:54:14;101875.20;;;15.03;54.09
85752;BME280;76192;39.766;2.716;2024-02-15T00:56:40;101874.86;;;15.03;53.65
85752;BME280;76192;39.766;2.716;2024-02-15T00:59:06;101867.84;;;15.04;53.23
85752;BME280;76192;39.766;2.716;2024-02-15T01:01:31;101864.98;;;15.05;53.13
85752;BME280;76192;39.766;2.716;2024-02-15T01:03:57;101858.34;;;15.06;53.15
85752;BME280;76192;39.766;2.716;2024-02-15T01:06:26;101862.33;;;15.07;52.88
85752;BME280;76192;39.766;2.716;2024-02-15T01:08:52;101861.17;;;15.08;52.49
85752;BME280;76192;39.766;2.716;2024-02-15T01:11:17;101856.80;;;15.11;52.38
85752;BME280;76192;39.766;2.716;2024-02-15T01:13:43;101855.71;;;15.14;51.82
85752;BME280;76192;39.766;2.716;2024-02-15T01:16:12;101855.36;;;15.17;51.47
85752;BME280;76192;39.766;2.716;2024-02-15T01:18:37;101851.48;;;15.23;51.30
85752;BME280;76192;39.766;2.716;2024-02-15T01:21:03;101859.38;;;15.28;51.02
85752;BME280;76192;39.766;2.716;2024-02-15T01:23:29;101857.08;;;15.30;51.11
85752;BME280;76192;39.766;2.716;2024-02-15T01:25:54;101858.34;;;15.32;50.98
85752;BME280;76192;39.766;2.716;2024-02-15T01:28:20;101850.27;;;15.32;50.74
85752;BME280;76192;39.766;2.716;2024-02-15T01:30:46;101853.64;;;15.35;49.96
85752;BME280;76192;39.766;2.716;2024-02-15T01:33:12;101852.32;;;15.40;49.63
85752;BME280;76192;39.766;2.716;2024-02-15T01:35:38;101853.45;;;15.47;49.04
85752;BME280;76192;39.766;2.716;2024-02-15T01:38:05;101851.85;;;15.54;48.65
85752;BME280;76192;39.766;2.716;2024-02-15T01:40:31;101843.92;;;15.63;48.34
85752;BME280;76192;39.766;2.716;2024-02-15T01:42:57;101844.70;;;15.69;48.11
85752;BME280;76192;39.766;2.716;2024-02-15T01:45:24;101844.85;;;15.72;47.92
85752;BME280;76192;39.766;2.716;2024-02-15T01:47:52;101843.55;;;15.74;47.47
85752;BME280;76192;39.766;2.716;2024-02-15T01:50:18;101843.42;;;15.76;47.13
85752;BME280;76192;39.766;2.716;2024-02-15T01:52:46;101843.98;;;15.77;46.85
85752;BME280;76192;39.766;2.716;2024-02-15T01:55:14;101841.74;;;15.77;46.86
85752;BME280;76192;39.766;2.716;2024-02-15T01:57:44;101837.45;;;15.77;46.58
85752;BME280;76192;39.766;2.716;2024-02-15T02:00:17;101839.36;;;15.78;46.34
85752;BME280;76192;39.766;2.716;2024-02-15T02:02:44;101842.99;;;15.79;46.01
85752;BME280;76192;39.766;2.716;2024-02-15T02:05:10;101844.21;;;15.78;46.26
85752;BME280;76192;39.766;2.716;2024-02-15T02:07:37;101836.54;;;15.76;46.70
85752;BME280;76192;39.766;2.716;2024-02-15T02:10:04;101831.98;;;15.73;46.86
85752;BME280;76192;39.766;2.716;2024-02-15T02:12:31;101824.84;;;15.70;46.02
85752;BME280;76192;39.766;2.716;2024-02-15T02:14:57;101822.34;;;15.68;45.60
85752;BME280;76192;39.766;2.716;2024-02-15T02:17:22;101820.34;;;15.66;45.09
85752;BME280;76192;39.766;2.716;2024-02-15T02:19:49;101814.73;;;15.64;43.91
85752;BME280;76192;39.766;2.716;2024-02-15T02:22:18;101819.18;;;15.63;43.36
85752;BME280;76192;39.766;2.716;2024-02-15T02:24:59;101814.44;;;15.61;42.65
85752;BME280;76192;39.766;2.716;2024-02-15T02:27:29;101804.96;;;15.60;42.54
85752;BME280;76192;39.766;2.716;2024-02-15T02:29:56;101797.65;;;15.62;43.11
85752;BME280;76192;39.766;2.716;2024-02-15T02:32:25;101799.57;;;15.67;43.59
85752;BME280;76192;39.766;2.716;2024-02-15T02:34:51;101796.98;;;15.71;43.72
85752;BME280;76192;39.766;2.716;2024-02-15T02:37:25;101796.80;;;15.75;43.70
85752;BME280;76192;39.766;2.716;2024-02-15T02:39:51;101792.09;;;15.78;43.24
85752;BME280;76192;39.766;2.716;2024-02-15T02:42:17;101786.42;;;15.83;42.61
85752;BME280;76192;39.766;2.716;2024-02-15T02:44:43;101779.36;;;15.87;42.36
85752;BME280;76192;39.766;2.716;2024-02-15T02:47:09;101776.43;;;15.91;42.14
85752;BME280;76192;39.766;2.716;2024-02-15T02:49:37;101770.86;;;15.95;42.02
85752;BME280;76192;39.766;2.716;2024-02-15T02:52:04;101770.58;;;15.96;41.97
85752;BME280;76192;39.766;2.716;2024-02-15T02:54:30;101767.19;;;15.97;41.59
85752;BME280;76192;39.766;2.716;2024-02-15T02:56:56;101766.33;;;15.97;41.12
85752;BME280;76192;39.766;2.716;2024-02-15T02:59:21;101764.55;;;15.96;40.24
85752;BME280;76192;39.766;2.716;2024-02-15T03:01:47;101756.98;;;15.96;39.82
85752;BME280;76192;39.766;2.716;2024-02-15T03:04:16;101764.86;;;15.95;39.58
85752;BME280;76192;39.766;2.716;2024-02-15T03:06:44;101761.52;;;15.93;39.20
85752;BME280;76192;39.766;2.716;2024-02-15T03:09:11;101760.56;;;15.90;38.78
85752;BME280;76192;39.766;2.716;2024-02-15T03:11:39;101758.40;;;15.88;38.93
85752;BME280;76192;39.766;2.716;2024-02-15T03:14:05;101752.10;;;15.85;38.01
85752;BME280;76192;39.766;2.716;2024-02-15T03:16:34;101750.06;;;15.85;37.75
85752;BME280;76192;39.766;2.716;2024-02-15T03:18:59;101743.17;;;15.85;37.98
85752;BME280;76192;39.766;2.716;2024-02-15T03:21:29;101741.13;;;15.86;38.29
85752;BME280;76192;39.766;2.716;2024-02-15T03:23:55;101739.90;;;15.85;38.19
85752;BME280;76192;39.766;2.716;2024-02-15T03:26:31;101743.90;;;15.86;38.15
85752;BME280;76192;39.766;2.716;2024-02-15T03:29:04;101739.73;;;15.85;38.27
85752;BME280;76192;39.766;2.716;2024-02-15T03:31:30;101739.53;;;15.84;38.13
85752;BME280;76192;39.766;2.716;2024-02-15T03:34:00;101739.17;;;15.84;38.20
85752;BME280;76192;39.766;2.716;2024-02-15T03:36:25;101742.80;;;15.85;37.27
85752;BME280;76192;39.766;2.716;2024-02-15T03:38:52;101738.30;;;15.83;37.28
85752;BME280;76192;39.766;2.716;2024-02-15T03:41:19;101734.40;;;15.80;38.33
85752;BME280;76192;39.766;2.716;2024-02-15T03:43:45;101734.31;;;15.78;39.14
85752;BME280;76192;39.766;2.716;2024-02-15T03:46:12;101738.57;;;15.77;39.41
85752;BME280;76192;39.766;2.716;2024-02-15T03:48:38;101737.83;;;15.75;39.24
85752;BME280;76192;39.766;2.716;2024-02-15T03:51:04;101734.88;;;15.74;38.96
85752;BME280;76192;39.766;2.716;2024-02-15T03:53:31;101736.58;;;15.73;38.75
85752;BME280;76192;39.766;2.716;2024-02-15T03:55:59;101731.88;;;15.72;38.57
85752;BME280;76192;39.766;2.716;2024-02-15T03:58:26;101728.05;;;15.70;38.63
85752;BME280;76192;39.766;2.716;2024-02-15T04:00:51;101725.77;;;15.69;38.18
85752;BME280;76192;39.766;2.716;2024-02-15T04:03:17;101723.89;;;15.69;37.16
85752;BME280;76192;39.766;2.716;2024-02-15T04:05:42;101720.47;;;15.70;36.57
85752;BME280;76192;39.766;2.716;2024-02-15T04:08:08;101725.83;;;15.71;35.99
85752;BME280;76192;39.766;2.716;2024-02-15T04:10:34;101725.31;;;15.71;35.73
85752;BME280;76192;39.766;2.716;2024-02-15T04:13:00;101718.89;;;15.69;35.70
85752;BME280;76192;39.766;2.716;2024-02-15T04:15:26;101713.59;;;15.66;35.34
85752;BME280;76192;39.766;2.716;2024-02-15T04:17:51;101709.04;;;15.64;34.56
85752;BME280;76192;39.766;2.716;2024-02-15T04:20:22;101710.31;;;15.62;34.61
85752;BME280;76192;39.766;2.716;2024-02-15T04:22:47;101710.38;;;15.59;34.82
85752;BME280;76192;39.766;2.716;2024-02-15T04:25:15;101711.98;;;15.56;34.70
85752;BME280;76192;39.766;2.716;2024-02-15T04:27:44;101708.89;;;15.51;34.87
85752;BME280;76192;39.766;2.716;2024-02-15T04:30:10;101705.82;;;15.47;34.67
85752;BME280;76192;39.766;2.716;2024-02-15T04:32:36;101699.80;;;15.42;34.69
85752;BME280;76192;39.766;2.716;2024-02-15T04:35:02;101696.16;;;15.37;35.30
85752;BME280;76192;39.766;2.716;2024-02-15T04:37:29;101693.75;;;15.32;35.24
85752;BME280;76192;39.766;2.716;2024-02-15T04:39:58;101689.09;;;15.26;35.14
85752;BME280;76192;39.766;2.716;2024-02-15T04:42:31;101689.96;;;15.22;34.17
85752;BME280;76192;39.766;2.716;2024-02-15T04:44:58;101683.38;;;15.21;33.52
85752;BME280;76192;39.766;2.716;2024-02-15T04:47:24;101677.33;;;15.20;32.30
85752;BME280;76192;39.766;2.716;2024-02-15T04:49:49;101679.00;;;15.19;31.48
85752;BME280;76192;39.766;2.716;2024-02-15T04:52:15;101680.01;;;15.18;31.14
85752;BME280;76192;39.766;2.716;2024-02-15T04:54:43;101676.21;;;15.17;31.24
85752;BME280;76192;39.766;2.716;2024-02-15T04:57:09;101676.89;;;15.17;29.18
85752;BME280;76192;39.766;2.716;2024-02-15T04:59:37;101678.33;;;15.19;28.45
85752;BME280;76192;39.766;2.716;2024-02-15T05:02:03;101676.63;;;15.19;27.66
85752;BME280;76192;39.766;2.716;2024-02-15T05:04:28;101686.43;;;15.20;27.23
85752;BME280;76192;39.766;2.716;2024-02-15T05:06:54;101687.45;;;15.19;27.73
85752;BME280;76192;39.766;2.716;2024-02-15T05:09:21;101687.56;;;15.18;28.50
85752;BME280;76192;39.766;2.716;2024-02-15T05:11:48;101686.52;;;15.18;29.09
85752;BME280;76192;39.766;2.716;2024-02-15T05:14:14;101683.67;;;15.15;29.59
85752;BME280;76192;39.766;2.716;2024-02-15T05:16:47;101680.38;;;15.14;29.32
85752;BME280;76192;39.766;2.716;2024-02-15T05:19:17;101680.63;;;15.12;30.07
85752;BME280;76192;39.766;2.716;2024-02-15T05:21:45;101686.02;;;15.09;29.58
85752;BME280;76192;39.766;2.716;2024-02-15T05:24:15;101686.61;;;15.07;30.37
85752;BME280;76192;39.766;2.716;2024-02-15T05:26:43;101684.56;;;15.03;30.70
85752;BME280;76192;39.766;2.716;2024-02-15T05:29:12;101682.73;;;14.99;30.09
85752;BME280;76192;39.766;2.716;2024-02-15T05:31:38;101676.97;;;14.97;29.13
85752;BME280;76192;39.766;2.716;2024-02-15T05:34:10;101672.61;;;14.95;27.96
85752;BME280;76192;39.766;2.716;2024-02-15T05:36:36;101670.00;;;14.94;28.10
85752;BME280;76192;39.766;2.716;2024-02-15T05:39:03;101667.56;;;14.93;27.63
85752;BME280;76192;39.766;2.716;2024-02-15T05:41:30;101665.09;;;14.92;28.83
85752;BME280;76192;39.766;2.716;2024-02-15T05:43:57;101658.37;;;14.91;29.31
85752;BME280;76192;39.766;2.716;2024-02-15T05:46:23;101656.05;;;14.89;28.79
85752;BME280;76192;39.766;2.716;2024-02-15T05:48:50;101656.19;;;14.88;27.26
85752;BME280;76192;39.766;2.716;2024-02-15T05:51:17;101649.18;;;14.89;25.60
85752;BME280;76192;39.766;2.716;2024-02-15T05:53:43;101645.90;;;14.93;24.59
85752;BME280;76192;39.766;2.716;2024-02-15T05:56:09;101644.55;;;14.98;24.48
85752;BME280;76192;39.766;2.716;2024-02-15T05:58:39;101643.48;;;15.01;25.18
85752;BME280;76192;39.766;2.716;2024-02-15T06:01:07;101648.17;;;15.03;26.37
85752;BME280;76192;39.766;2.716;2024-02-15T06:03:37;101649.40;;;15.04;26.87
85752;BME280;76192;39.766;2.716;2024-02-15T06:06:05;101653.49;;;15.03;26.77
85752;BME280;76192;39.766;2.716;2024-02-15T06:08:34;101657.38;;;15.01;26.22
85752;BME280;76192;39.766;2.716;2024-02-15T06:11:00;101659.70;;;14.99;26.38
85752;BME280;76192;39.766;2.716;2024-02-15T06:13:29;101663.77;;;14.98;26.05
85752;BME280;76192;39.766;2.716;2024-02-15T06:15:55;101656.29;;;14.95;25.46
85752;BME280;76192;39.766;2.716;2024-02-15T06:18:23;101662.48;;;14.99;25.56
85752;BME280;76192;39.766;2.716;2024-02-15T06:20:53;101659.41;;;15.00;25.03
85752;BME280;76192;39.766;2.716;2024-02-15T06:23:20;101663.90;;;15.01;24.95
85752;BME280;76192;39.766;2.716;2024-02-15T06:25:46;101663.08;;;15.02;25.31
85752;BME280;76192;39.766;2.716;2024-02-15T06:28:16;101661.06;;;15.03;24.62
85752;BME280;76192;39.766;2.716;2024-02-15T06:31:06;101666.95;;;15.09;23.53
85752;BME280;76192;39.766;2.716;2024-02-15T06:33:50;101671.09;;;15.14;23.93
85752;BME280;76192;39.766;2.716;2024-02-15T06:36:48;101674.27;;;15.16;23.57
85752;BME280;76192;39.766;2.716;2024-02-15T06:39:33;101681.03;;;15.18;23.50
85752;BME280;76192;39.766;2.716;2024-02-15T06:42:09;101675.30;;;15.21;22.85
85752;BME280;76192;39.766;2.716;2024-02-15T06:44:37;101681.64;;;15.25;22.92
85752;BME280;76192;39.766;2.716;2024-02-15T06:47:06;101681.06;;;15.28;23.19
85752;BME280;76192;39.766;2.716;2024-02-15T06:49:32;101683.55;;;15.30;23.50
85752;BME280;76192;39.766;2.716;2024-02-15T06:51:59;101689.25;;;15.31;23.58
85752;BME280;76192;39.766;2.716;2024-02-15T06:54:27;101686.79;;;15.29;23.82
85752;BME280;76192;39.766;2.716;2024-02-15T06:56:53;101689.79;;;15.32;23.18
85752;BME280;76192;39.766;2.716;2024-02-15T06:59:20;101688.95;;;15.32;22.93
85752;BME280;76192;39.766;2.716;2024-02-15T07:01:52;101691.77;;;15.34;23.22
85752;BME280;76192;39.766;2.716;2024-02-15T07:04:18;101691.08;;;15.34;23.80
85752;BME280;76192;39.766;2.716;2024-02-15T07:06:46;101690.19;;;15.34;24.31
85752;BME280;76192;39.766;2.716;2024-02-15T07:09:14;101685.55;;;15.33;23.87
85752;BME280;76192;39.766;2.716;2024-02-15T07:11:46;101690.02;;;15.34;24.38
85752;BME280;76192;39.766;2.716;2024-02-15T07:14:14;101690.54;;;15.33;24.37
85752;BME280;76192;39.766;2.716;2024-02-15T07:16:45;101687.65;;;15.34;25.09
85752;BME280;76192;39.766;2.716;2024-02-15T07:19:11;101685.99;;;15.36;25.61
85752;BME280;76192;39.766;2.716;2024-02-15T07:21:37;101691.95;;;15.39;27.52
85752;BME280;76192;39.766;2.716;2024-02-15T07:24:03;101694.96;;;15.41;26.04
85752;BME280;76192;39.766;2.716;2024-02-15T07:26:30;101692.84;;;15.44;25.42
85752;BME280;76192;39.766;2.716;2024-02-15T07:28:56;101697.33;;;15.49;25.79
85752;BME280;76192;39.766;2.716;2024-02-15T07:31:23;101700.66;;;15.56;26.66
85752;BME280;76192;39.766;2.716;2024-02-15T07:33:52;101704.80;;;15.61;26.16
85752;BME280;76192;39.766;2.716;2024-02-15T07:36:22;101703.28;;;15.66;26.55
85752;BME280;76192;39.766;2.716;2024-02-15T07:38:49;101701.59;;;15.71;26.69
85752;BME280;76192;39.766;2.716;2024-02-15T07:41:16;101705.41;;;15.77;26.48
85752;BME280;76192;39.766;2.716;2024-02-15T07:43:43;101712.04;;;15.85;26.83
85752;BME280;76192;39.766;2.716;2024-02-15T07:46:13;101711.19;;;15.90;27.89
85752;BME280;76192;39.766;2.716;2024-02-15T07:48:47;101713.41;;;15.94;28.55
85752;BME280;76192;39.766;2.716;2024-02-15T07:51:14;101713.85;;;15.97;28.45
85752;BME280;76192;39.766;2.716;2024-02-15T07:53:41;101714.05;;;16.03;27.71
85752;BME280;76192;39.766;2.716;2024-02-15T07:56:09;101713.42;;;16.10;28.18
85752;BME280;76192;39.766;2.716;2024-02-15T07:58:38;101710.37;;;16.16;27.92
85752;BME280;76192;39.766;2.716;2024-02-15T08:01:06;101709.42;;;16.24;27.80
85752;BME280;76192;39.766;2.716;2024-02-15T08:03:32;101711.77;;;16.31;27.67
85752;BME280;76192;39.766;2.716;2024-02-15T08:05:58;101710.67;;;16.40;27.91
85752;BME280;76192;39.766;2.716;2024-02-15T08:08:25;101710.78;;;16.49;28.01
85752;BME280;76192;39.766;2.716;2024-02-15T08:10:51;101712.23;;;16.56;28.38
85752;BME280;76192;39.766;2.716;2024-02-15T08:13:16;101714.70;;;16.62;28.70
85752;BME280;76192;39.766;2.716;2024-02-15T08:15:48;101708.67;;;16.69;28.71
85752;BME280;76192;39.766;2.716;2024-02-15T08:18:18;101712.94;;;16.77;28.97
85752;BME280;76192;39.766;2.716;2024-02-15T08:20:45;101711.80;;;16.84;27.68
85752;BME280;76192;39.766;2.716;2024-02-15T08:23:10;101717.14;;;16.96;27.49
85752;BME280;76192;39.766;2.716;2024-02-15T08:25:38;101715.52;;;17.05;27.51
85752;BME280;76192;39.766;2.716;2024-02-15T08:28:05;101709.24;;;17.14;27.66
85752;BME280;76192;39.766;2.716;2024-02-15T08:30:32;101705.02;;;17.22;27.81
85752;BME280;76192;39.766;2.716;2024-02-15T08:32:58;101704.55;;;17.29;28.20
85752;BME280;76192;39.766;2.716;2024-02-15T08:35:23;101700.65;;;17.37;28.36
85752;BME280;76192;39.766;2.716;2024-02-15T08:37:49;101699.84;;;17.45;28.84
85752;BME280;76192;39.766;2.716;2024-02-15T08:40:16;101697.45;;;17.52;29.28
85752;BME280;76192;39.766;2.716;2024-02-15T08:42:44;101693.86;;;17.59;29.71
85752;BME280;76192;39.766;2.716;2024-02-15T08:45:11;101690.61;;;17.67;30.06
85752;BME280;76192;39.766;2.716;2024-02-15T08:47:42;101689.25;;;17.73;30.34
85752;BME280;76192;39.766;2.716;2024-02-15T08:50:09;101689.67;;;17.82;30.59
85752;BME280;76192;39.766;2.716;2024-02-15T08:52:36;101691.80;;;17.90;30.71
85752;BME280;76192;39.766;2.716;2024-02-15T08:55:09;101692.56;;;17.99;30.96
85752;BME280;76192;39.766;2.716;2024-02-15T08:57:35;101690.36;;;18.07;31.20
85752;BME280;76192;39.766;2.716;2024-02-15T09:00:05;101688.17;;;18.16;31.40
85752;BME280;76192;39.766;2.716;2024-02-15T09:02:44;101690.44;;;18.24;31.59
85752;BME280;76192;39.766;2.716;2024-02-15T09:05:10;101687.38;;;18.32;31.93
85752;BME280;76192;39.766;2.716;2024-02-15T09:07:45;101682.91;;;18.40;32.16
85752;BME280;76192;39.766;2.716;2024-02-15T09:10:16;101678.63;;;18.49;32.21
85752;BME280;76192;39.766;2.716;2024-02-15T09:12:48;101684.55;;;18.57;32.05
85752;BME280;76192;39.766;2.716;2024-02-15T09:15:15;101684.22;;;18.66;32.02
85752;BME280;76192;39.766;2.716;2024-02-15T09:17:41;101687.56;;;18.74;32.39
85752;BME280;76192;39.766;2.716;2024-02-15T09:20:10;101685.68;;;18.83;32.51
85752;BME280;76192;39.766;2.716;2024-02-15T09:22:50;101683.30;;;18.91;32.57
85752;BME280;76192;39.766;2.716;2024-02-15T09:25:19;101682.80;;;19.01;31.87
85752;BME280;76192;39.766;2.716;2024-02-15T09:27:45;101678.18;;;19.10;31.17
85752;BME280;76192;39.766;2.716;2024-02-15T09:30:11;101674.07;;;19.20;30.88
85752;BME280;76192;39.766;2.716;2024-02-15T09:32:39;101673.40;;;19.30;30.28
85752;BME280;76192;39.766;2.716;2024-02-15T09:35:05;101671.54;;;19.40;29.30
85752;BME280;76192;39.766;2.716;2024-02-15T09:37:44;101674.51;;;19.51;28.95
85752;BME280;76192;39.766;2.716;2024-02-15T09:40:12;101679.05;;;19.61;28.44
85752;BME280;76192;39.766;2.716;2024-02-15T09:42:38;101680.66;;;19.71;28.60
85752;BME280;76192;39.766;2.716;2024-02-15T09:45:08;101677.55;;;19.81;28.58
85752;BME280;76192;39.766;2.716;2024-02-15T09:47:41;101672.89;;;19.91;28.48
85752;BME280;76192;39.766;2.716;2024-02-15T09:50:08;101675.82;;;20.00;28.11
85752;BME280;76192;39.766;2.716;2024-02-15T09:52:38;101669.38;;;20.08;27.88
85752;BME280;76192;39.766;2.716;2024-02-15T09:55:07;101660.15;;;20.15;27.92
85752;BME280;76192;39.766;2.716;2024-02-15T09:57:39;101655.67;;;20.26;27.44
85752;BME280;76192;39.766;2.716;2024-02-15T10:00:05;101661.20;;;20.36;26.87
85752;BME280;76192;39.766;2.716;2024-02-15T10:02:40;101661.89;;;20.48;26.77
85752;BME280;76192;39.766;2.716;2024-02-15T10:05:07;101658.29;;;20.58;27.05
85752;BME280;76192;39.766;2.716;2024-02-15T10:07:41;101656.02;;;20.68;27.05
85752;BME280;76192;39.766;2.716;2024-02-15T10:12:44;101648.16;;;20.89;26.40
85752;BME280;76192;39.766;2.716;2024-02-15T10:15:09;101643.77;;;20.98;26.73
85752;BME280;76192;39.766;2.716;2024-02-15T10:17:35;101633.83;;;21.07;26.77
85752;BME280;76192;39.766;2.716;2024-02-15T10:20:05;101628.05;;;21.16;26.49
85752;BME280;76192;39.766;2.716;2024-02-15T10:22:31;101629.36;;;21.25;26.72
85752;BME280;76192;39.766;2.716;2024-02-15T10:25:11;101629.66;;;21.34;26.55
85752;BME280;76192;39.766;2.716;2024-02-15T10:27:37;101625.27;;;21.44;26.78
85752;BME280;76192;39.766;2.716;2024-02-15T10:30:19;101626.23;;;21.53;26.40
85752;BME280;76192;39.766;2.716;2024-02-15T10:32:45;101622.16;;;21.61;25.99
85752;BME280;76192;39.766;2.716;2024-02-15T10:35:21;101610.29;;;21.71;26.29
85752;BME280;76192;39.766;2.716;2024-02-15T10:37:48;101622.35;;;21.80;26.02
85752;BME280;76192;39.766;2.716;2024-02-15T10:40:22;101624.00;;;21.90;25.17
85752;BME280;76192;39.766;2.716;2024-02-15T10:42:51;101608.98;;;21.99;25.16
85752;BME280;76192;39.766;2.716;2024-02-15T10:45:17;101613.95;;;22.12;25.59
85752;BME280;76192;39.766;2.716;2024-02-15T10:47:46;101608.19;;;22.26;25.92
85752;BME280;76192;39.766;2.716;2024-02-15T10:50:14;101609.66;;;22.39;25.73
85752;BME280;76192;39.766;2.716;2024-02-15T10:52:54;101607.66;;;22.51;25.58
85752;BME280;76192;39.766;2.716;2024-02-15T10:55:40;101602.88;;;22.67;25.72
85752;BME280;76192;39.766;2.716;2024-02-15T10:58:10;101600.88;;;22.81;25.16
85752;BME280;76192;39.766;2.716;2024-02-15T11:00:39;101598.15;;;22.92;25.07
85752;BME280;76192;39.766;2.716;2024-02-15T11:03:18;101593.36;;;23.04;25.33
85752;BME280;76192;39.766;2.716;2024-02-15T11:05:46;101588.70;;;23.17;25.42
85752;BME280;76192;39.766;2.716;2024-02-15T11:08:13;101586.64;;;23.26;25.33
85752;BME280;76192;39.766;2.716;2024-02-15T11:10:39;101578.66;;;23.35;25.16
85752;BME280;76192;39.766;2.716;2024-02-15T11:13:09;101580.94;;;23.43;25.24
85752;BME280;76192;39.766;2.716;2024-02-15T11:18:02;101579.23;;;23.59;24.91
85752;BME280;76192;39.766;2.716;2024-02-15T11:23:04;101573.19;;;23.76;24.76
85752;BME280;76192;39.766;2.716;2024-02-15T11:25:37;101559.95;;;23.84;24.66
85752;BME280;76192;39.766;2.716;2024-02-15T11:30:55;101554.02;;;24.01;24.57
85752;BME280;76192;39.766;2.716;2024-02-15T11:33:35;101558.52;;;24.10;24.25
85752;BME280;76192;39.766;2.716;2024-02-15T11:36:12;101543.20;;;24.16;24.06
85752;BME280;76192;39.766;2.716;2024-02-15T11:38:41;101541.44;;;24.22;24.53
85752;BME280;76192;39.766;2.716;2024-02-15T11:41:09;101537.95;;;24.29;24.49
85752;BME280;76192;39.766;2.716;2024-02-15T11:46:22;101530.96;;;24.41;23.64
85752;BME280;76192;39.766;2.716;2024-02-15T11:48:51;101518.41;;;24.46;23.17
85752;BME280;76192;39.766;2.716;2024-02-15T11:51:35;101507.05;;;24.51;23.40
85752;BME280;76192;39.766;2.716;2024-02-15T11:54:10;101504.93;;;24.57;23.42
85752;BME280;76192;39.766;2.716;2024-02-15T11:56:56;101497.77;;;24.62;23.32
85752;BME280;76192;39.766;2.716;2024-02-15T11:59:39;101493.04;;;24.68;23.69
85752;BME280;76192;39.766;2.716;2024-02-15T12:02:21;101479.24;;;24.73;23.34
85752;BME280;76192;39.766;2.716;2024-02-15T12:05:06;101469.97;;;24.77;23.10
85752;BME280;76192;39.766;2.716;2024-02-15T12:07:50;101458.61;;;24.81;22.77
85752;BME280;76192;39.766;2.716;2024-02-15T12:10:34;101459.11;;;24.87;22.47
85752;BME280;76192;39.766;2.716;2024-02-15T12:13:19;101447.77;;;24.88;22.52
85752;BME280;76192;39.766;2.716;2024-02-15T12:16:03;101437.24;;;24.96;22.92
85752;BME280;76192;39.766;2.716;2024-02-15T12:18:48;101439.45;;;25.05;23.06
85752;BME280;76192;39.766;2.716;2024-02-15T12:21:25;101434.70;;;25.12;22.87
85752;BME280;76192;39.766;2.716;2024-02-15T12:24:00;101438.65;;;25.22;22.79
85752;BME280;76192;39.766;2.716;2024-02-15T12:26:27;101432.29;;;25.31;22.96
85752;BME280;76192;39.766;2.716;2024-02-15T12:28:53;101435.18;;;25.41;22.53
85752;BME280;76192;39.766;2.716;2024-02-15T12:31:24;101419.58;;;25.49;22.30
85752;BME280;76192;39.766;2.716;2024-02-15T12:34:03;101425.45;;;25.56;22.71
85752;BME280;76192;39.766;2.716;2024-02-15T12:36:33;101420.98;;;25.66;22.58
85752;BME280;76192;39.766;2.716;2024-02-15T12:39:03;101424.03;;;25.75;22.77
85752;BME280;76192;39.766;2.716;2024-02-15T12:41:39;101414.55;;;25.82;22.39
85752;BME280;76192;39.766;2.716;2024-02-15T12:44:08;101401.42;;;25.86;22.31
85752;BME280;76192;39.766;2.716;2024-02-15T12:46:35;101397.67;;;25.93;22.18
85752;BME280;76192;39.766;2.716;2024-02-15T12:49:09;101386.40;;;26.00;22.02
85752;BME280;76192;39.766;2.716;2024-02-15T12:51:39;101379.52;;;26.05;22.04
85752;BME280;76192;39.766;2.716;2024-02-15T12:54:09;101367.73;;;26.11;21.94
85752;BME280;76192;39.766;2.716;2024-02-15T12:56:36;101369.61;;;26.15;21.88
85752;BME280;76192;39.766;2.716;2024-02-15T12:59:02;101362.47;;;26.14;21.37
85752;BME280;76192;39.766;2.716;2024-02-15T13:01:28;101356.00;;;26.13;21.51
85752;BME280;76192;39.766;2.716;2024-02-15T13:03:54;101350.44;;;26.12;21.65
85752;BME280;76192;39.766;2.716;2024-02-15T13:06:20;101349.40;;;26.11;21.75
85752;BME280;76192;39.766;2.716;2024-02-15T13:08:49;101346.77;;;26.11;21.75
85752;BME280;76192;39.766;2.716;2024-02-15T13:11:15;101342.95;;;26.08;21.44